Latest  Newer  Older  Last 2 hours slideshow  Last 24 hours slideshow  Refresh every 5 minutes 
Current image  Latest image  Rain/snow radar  Cloud coverage sat images 

All time is UTC (add 2 hours to UTC in wintertime, 3 hours to UTC in DST for Latvia local time)

2021/11/30 21:50 EVRA 302150Z 29005KT 250V350 9999 FEW029CB OVC033 M00/M05 Q0988 NOSIG
2021/11/30 21:50 EVLA 302150Z AUTO 32007KT 280V350 9999 -SN SCT026/// BKN032/// OVC047/// 00/M03 Q0991
2021/11/30 21:50 EVVA 302150Z AUTO 34015KT 9999 -RASN FEW035 OVC045 01/M04 Q0990
2021/11/30 21:50 EYKA 302150Z 00000KT 3700 0350E R26/0450D BR PRFG FEW003 M05/M06 Q0990
2021/11/30 21:50 EYPA 302150Z VRB02KT 9999 BKN039 M02/M03 Q0992
2021/11/30 21:50 EYSA 302150Z 26007KT 9999 SCT049 M04/M07 Q0990 NOSIG
2021/11/30 21:50 EYVI 302150Z VRB01KT 0150 R01/0550V0800U FZFG FEW004 M06/M06 Q0989 NOSIG
2021/11/30 16:20 EEKA 301620Z 33022KT 9999 BKN019 M03/M06 Q0986
2021/11/30 21:20 EEKE 302120Z AUTO 34010KT 310V020 9999NDV -SN BKN027 OVC034 M02/M05 Q0988

2021/11/30 21:50 EETN 302150Z 32013KT 9999 DRSN OVC008 M07/M09 Q0984 NOSIG
2021/11/30 21:20 EETU 302120Z AUTO 29012KT 9999 -SN OVC012/// M07/M10 Q0983
   RIGA AIRPORT     EVRA               56 55N  023 58E   10   X     T          6 LV
   LIEPAJA INTL     EVLA        26406  56 31N  021 06E    4   X                8 LV
   VENTPILS         EVVA               57 21N  021 33E    6   X                8 LV
   KAUNAS           EYKA               54 54N  023 55E   77   X     T          6 LT
   PALANGA INTL     EYPA               55 55N  021 03E   10   X                6 LT
   SIAULIAI INTL    EYSA               55 54N  023 24E  135   X     T          6 LT
   VILNIUS INTL     EYVI        26730  54 38N  025 17E  197   X     T          6 LT
   KARDLA           EEKA        26116  58 59N  022 50E    4   X                8 EE
   KURESSAARE       EEKE               58 14N  022 31E    4   X                8 EE
   PARNU            EEPU               58 25N  024 28E   14   X                8 EE
   TALLINN          EETN        26038  59 24N  024 49E   40   X     T          8 EE
   TARTU            EETU               58 19N  026 41E   67   X                8 EE